createdAt,value
2023-05-11T00:00:47.337Z,0.00
2023-05-11T00:01:47.348Z,0.00
2023-05-11T00:02:47.390Z,0.00
2023-05-11T00:03:47.332Z,0.00
2023-05-11T00:04:47.281Z,0.00
2023-05-11T00:05:48.268Z,0.00
2023-05-11T00:06:48.073Z,0.00
2023-05-11T00:07:47.253Z,0.00
2023-05-11T00:08:47.241Z,0.00
2023-05-11T00:09:47.216Z,0.00
2023-05-11T00:10:47.201Z,0.00
2023-05-11T00:11:47.274Z,0.00
2023-05-11T00:12:47.199Z,0.00
2023-05-11T00:13:47.179Z,0.00
2023-05-11T00:14:47.174Z,0.00
2023-05-11T00:15:47.232Z,0.00
2023-05-11T00:16:47.146Z,0.00
2023-05-11T00:17:47.226Z,0.00
2023-05-11T00:18:47.171Z,0.00
2023-05-11T00:19:47.108Z,0.00
2023-05-11T00:20:47.102Z,0.00
2023-05-11T00:21:47.090Z,0.00
2023-05-11T00:22:47.188Z,0.00
2023-05-11T00:23:47.080Z,0.00
2023-05-11T00:24:47.063Z,0.00
2023-05-11T00:25:47.042Z,0.00
2023-05-11T00:26:47.038Z,0.00
2023-05-11T00:27:47.044Z,0.00
2023-05-11T00:28:47.034Z,0.00
2023-05-11T00:29:47.004Z,0.00
2023-05-11T00:30:46.989Z,0.00
2023-05-11T00:31:47.045Z,0.00
2023-05-11T00:32:47.019Z,0.00
2023-05-11T00:33:46.963Z,0.00
2023-05-11T00:34:47.003Z,0.00
2023-05-11T00:35:46.915Z,0.00
2023-05-11T00:36:46.933Z,0.00
2023-05-11T00:37:46.934Z,0.00
2023-05-11T00:38:46.927Z,0.00
2023-05-11T00:39:46.892Z,0.00
2023-05-11T00:40:46.920Z,0.00
2023-05-11T00:41:46.887Z,0.00
2023-05-11T00:42:48.113Z,0.00
2023-05-11T00:43:46.833Z,0.00
2023-05-11T00:44:46.822Z,0.00
2023-05-11T00:45:46.850Z,0.00
2023-05-11T00:46:46.833Z,0.00
2023-05-11T00:47:48.138Z,0.00
2023-05-11T00:48:46.785Z,0.00
2023-05-11T00:49:46.786Z,0.00
2023-05-11T00:50:46.772Z,0.00
2023-05-11T00:51:46.794Z,0.00
2023-05-11T00:52:46.758Z,0.00
2023-05-11T00:53:46.730Z,0.00
2023-05-11T00:54:46.711Z,0.00
2023-05-11T00:55:46.717Z,0.00
2023-05-11T00:56:46.726Z,0.00
2023-05-11T00:57:46.700Z,0.00
2023-05-11T00:58:46.686Z,0.00
2023-05-11T00:59:46.659Z,0.00
2023-05-11T01:00:46.693Z,0.00
2023-05-11T01:01:46.657Z,0.00
2023-05-11T01:02:46.764Z,0.00
2023-05-11T01:03:46.642Z,0.00
2023-05-11T01:04:46.611Z,0.00
2023-05-11T01:05:46.606Z,0.00
2023-05-11T01:06:46.636Z,0.00
2023-05-11T01:07:46.577Z,0.00
2023-05-11T01:08:46.576Z,0.00
2023-05-11T01:09:46.566Z,0.00
2023-05-11T01:10:46.548Z,0.00
2023-05-11T01:11:46.581Z,0.00
2023-05-11T01:12:46.634Z,0.00
2023-05-11T01:13:46.516Z,0.00
2023-05-11T01:14:46.533Z,0.00
2023-05-11T01:15:46.505Z,0.00
2023-05-11T01:16:46.519Z,0.00
2023-05-11T01:17:46.555Z,0.00
2023-05-11T01:18:47.522Z,0.00
2023-05-11T01:19:46.459Z,0.00
2023-05-11T01:20:46.439Z,0.00
2023-05-11T01:21:46.432Z,0.00
2023-05-11T01:22:46.426Z,0.00
2023-05-11T01:23:46.434Z,0.00
2023-05-11T01:24:46.394Z,0.00
2023-05-11T01:25:46.396Z,0.00
2023-05-11T01:26:46.433Z,0.00
2023-05-11T01:27:46.417Z,0.00
2023-05-11T01:28:46.358Z,0.00
2023-05-11T01:29:46.358Z,0.00
2023-05-11T01:30:46.336Z,0.00
2023-05-11T01:31:46.456Z,0.00
2023-05-11T01:32:46.507Z,0.00
2023-05-11T01:33:46.325Z,0.00
2023-05-11T01:34:46.320Z,0.00
2023-05-11T01:35:46.379Z,0.00
2023-05-11T01:36:47.739Z,0.00
2023-05-11T01:37:46.307Z,0.00
2023-05-11T01:38:46.263Z,0.00
2023-05-11T01:39:47.158Z,0.00
2023-05-11T01:40:46.231Z,0.00
2023-05-11T01:41:46.289Z,0.00
2023-05-11T01:42:46.233Z,0.00
2023-05-11T01:43:47.648Z,0.00
2023-05-11T01:44:46.595Z,0.00
2023-05-11T01:45:46.651Z,0.00
2023-05-11T01:46:47.133Z,0.00
2023-05-11T01:47:46.265Z,0.00
2023-05-11T01:48:46.138Z,0.00
2023-05-11T01:49:47.116Z,0.00
2023-05-11T01:50:46.955Z,0.00
2023-05-11T01:51:46.268Z,0.00
2023-05-11T01:52:46.125Z,0.00
2023-05-11T01:53:46.223Z,0.00
2023-05-11T01:54:47.572Z,0.00
2023-05-11T01:55:46.056Z,0.00
2023-05-11T01:56:46.059Z,0.00
2023-05-11T01:57:46.379Z,0.00
2023-05-11T01:58:46.445Z,0.00
2023-05-11T01:59:46.013Z,0.00
2023-05-11T02:00:45.999Z,0.00
2023-05-11T02:01:46.077Z,0.00
2023-05-11T02:02:46.538Z,0.00
2023-05-11T02:03:46.151Z,0.00
2023-05-11T02:04:45.953Z,0.00
2023-05-11T02:05:47.415Z,0.00
2023-05-11T02:06:46.096Z,0.00
2023-05-11T02:07:46.804Z,0.00
2023-05-11T02:08:46.634Z,0.00
2023-05-11T02:09:45.903Z,0.00
2023-05-11T02:10:46.158Z,0.00
2023-05-11T02:11:45.874Z,0.00
2023-05-11T02:12:45.886Z,0.00
2023-05-11T02:13:47.830Z,0.00
2023-05-11T02:14:45.842Z,0.00
2023-05-11T02:15:45.887Z,0.00
2023-05-11T02:16:45.817Z,0.00
2023-05-11T02:17:45.826Z,0.00
2023-05-11T02:18:45.915Z,0.00
2023-05-11T02:19:47.746Z,0.00
2023-05-11T02:20:45.820Z,0.00
2023-05-11T02:21:45.779Z,0.00
2023-05-11T02:22:45.858Z,0.00
2023-05-11T02:23:45.825Z,0.00
2023-05-11T02:24:46.004Z,0.00
2023-05-11T02:25:46.749Z,0.00
2023-05-11T02:26:45.696Z,0.00
2023-05-11T02:27:45.704Z,0.00
2023-05-11T02:28:45.691Z,0.00
2023-05-11T02:29:45.837Z,0.00
2023-05-11T02:30:45.670Z,0.00
2023-05-11T02:31:46.015Z,0.00
2023-05-11T02:32:45.713Z,0.00
2023-05-11T02:33:45.633Z,0.00
2023-05-11T02:34:47.070Z,0.00
2023-05-11T02:35:45.654Z,0.00
2023-05-11T02:36:45.919Z,0.00
2023-05-11T02:37:45.584Z,0.00
2023-05-11T02:38:45.578Z,0.00
2023-05-11T02:39:45.572Z,0.00
2023-05-11T02:40:47.033Z,0.00
2023-05-11T02:41:45.581Z,0.00
2023-05-11T02:42:45.522Z,0.00
2023-05-11T02:43:45.537Z,0.00
2023-05-11T02:44:46.989Z,0.00
2023-05-11T02:45:45.958Z,0.00
2023-05-11T02:46:45.533Z,0.00
2023-05-11T02:47:46.120Z,0.00
2023-05-11T02:48:45.479Z,0.00
2023-05-11T02:49:45.467Z,0.00
2023-05-11T02:50:45.885Z,0.00
2023-05-11T02:51:45.451Z,0.00
2023-05-11T02:52:45.413Z,0.00
2023-05-11T02:53:45.417Z,0.00
2023-05-11T02:54:46.347Z,0.00
2023-05-11T02:55:45.420Z,0.00
2023-05-11T02:56:46.870Z,0.00
2023-05-11T02:57:45.403Z,0.00
2023-05-11T02:58:45.378Z,0.00
2023-05-11T02:59:45.393Z,0.00
2023-05-11T03:00:45.447Z,0.00
2023-05-11T03:01:45.503Z,0.00
2023-05-11T03:02:45.344Z,0.00
2023-05-11T03:03:45.374Z,0.00
2023-05-11T03:04:46.240Z,0.00
2023-05-11T03:05:45.302Z,0.00
2023-05-11T03:06:45.372Z,0.00
2023-05-11T03:07:45.258Z,0.00
2023-05-11T03:08:45.249Z,0.00
2023-05-11T03:09:45.249Z,0.00
2023-05-11T03:10:45.341Z,0.00
2023-05-11T03:11:46.247Z,0.00
2023-05-11T03:12:46.023Z,0.00
2023-05-11T03:13:45.257Z,0.00
2023-05-11T03:14:45.176Z,0.00
2023-05-11T03:15:46.644Z,0.00
2023-05-11T03:16:45.180Z,0.00
2023-05-11T03:17:45.192Z,0.00
2023-05-11T03:18:45.233Z,0.00
2023-05-11T03:19:45.119Z,0.00
2023-05-11T03:20:45.299Z,0.00
2023-05-11T03:21:45.110Z,0.00
2023-05-11T03:22:45.086Z,0.00
2023-05-11T03:23:45.067Z,0.00
2023-05-11T03:24:45.115Z,0.00
2023-05-11T03:25:45.061Z,4.00
2023-05-11T03:26:46.510Z,4.00
2023-05-11T03:27:45.066Z,0.00
2023-05-11T03:28:45.198Z,4.00
2023-05-11T03:29:45.011Z,4.00
2023-05-11T03:30:44.985Z,8.00
2023-05-11T03:31:45.017Z,4.00
2023-05-11T03:32:45.025Z,8.00
2023-05-11T03:33:45.315Z,8.00
2023-05-11T03:34:44.956Z,8.00
2023-05-11T03:35:45.027Z,8.00
2023-05-11T03:36:44.934Z,12.00
2023-05-11T03:37:44.970Z,12.00
2023-05-11T03:38:44.920Z,12.00
2023-05-11T03:39:46.363Z,16.00
2023-05-11T03:40:45.759Z,20.00
2023-05-11T03:41:44.927Z,20.00
2023-05-11T03:42:45.884Z,24.00
2023-05-11T03:43:44.872Z,24.00
2023-05-11T03:44:44.898Z,24.00
2023-05-11T03:45:44.913Z,28.00
2023-05-11T03:46:45.676Z,32.00
2023-05-11T03:47:44.852Z,32.00
2023-05-11T03:48:44.808Z,40.00
2023-05-11T03:49:44.896Z,44.00
2023-05-11T03:50:44.779Z,52.00
2023-05-11T03:51:44.801Z,52.00
2023-05-11T03:52:44.761Z,56.00
2023-05-11T03:53:44.961Z,64.00
2023-05-11T03:54:44.763Z,72.00
2023-05-11T03:55:44.751Z,76.00
2023-05-11T03:56:44.720Z,84.00
2023-05-11T03:57:44.735Z,88.00
2023-05-11T03:58:44.697Z,92.00
2023-05-11T03:59:44.968Z,92.00
2023-05-11T04:00:46.128Z,100.00
2023-05-11T04:01:44.907Z,104.00
2023-05-11T04:02:45.736Z,108.00
2023-05-11T04:03:44.862Z,112.00
2023-05-11T04:04:44.737Z,120.00
2023-05-11T04:05:45.579Z,124.00
2023-05-11T04:06:46.058Z,128.00
2023-05-11T04:07:44.605Z,132.00
2023-05-11T04:08:44.579Z,140.00
2023-05-11T04:09:45.441Z,144.00
2023-05-11T04:10:44.563Z,156.00
2023-05-11T04:11:45.571Z,164.00
2023-05-11T04:12:44.547Z,176.00
2023-05-11T04:13:44.556Z,192.00
2023-05-11T04:14:46.003Z,204.00
2023-05-11T04:15:46.034Z,216.00
2023-05-11T04:16:44.495Z,228.00
2023-05-11T04:17:45.404Z,232.00
2023-05-11T04:18:46.079Z,236.00
2023-05-11T04:19:45.434Z,244.00
2023-05-11T04:20:44.488Z,236.00
2023-05-11T04:21:45.907Z,236.00
2023-05-11T04:22:44.457Z,236.00
2023-05-11T04:23:44.432Z,252.00
2023-05-11T04:24:44.472Z,272.00
2023-05-11T04:25:44.395Z,280.00
2023-05-11T04:26:44.397Z,276.00
2023-05-11T04:27:44.569Z,284.00
2023-05-11T04:28:44.379Z,304.00
2023-05-11T04:29:44.365Z,312.00
2023-05-11T04:30:44.373Z,308.00
2023-05-11T04:31:44.329Z,308.00
2023-05-11T04:32:44.353Z,300.00
2023-05-11T04:33:44.315Z,284.00
2023-05-11T04:34:45.115Z,256.00
2023-05-11T04:35:44.306Z,248.00
2023-05-11T04:36:45.110Z,272.00
2023-05-11T04:37:44.269Z,252.00
2023-05-11T04:38:44.729Z,244.00
2023-05-11T04:39:44.269Z,240.00
2023-05-11T04:40:44.233Z,224.00
2023-05-11T04:41:44.234Z,216.00
2023-05-11T04:42:44.699Z,212.00
2023-05-11T04:43:44.476Z,212.00
2023-05-11T04:44:44.190Z,236.00
2023-05-11T04:45:44.299Z,304.00
2023-05-11T04:46:44.199Z,288.00
2023-05-11T04:47:44.277Z,288.00
2023-05-11T04:48:44.186Z,352.00
2023-05-11T04:49:44.259Z,536.00
2023-05-11T04:50:44.652Z,684.00
2023-05-11T04:51:44.195Z,544.00
2023-05-11T04:52:44.118Z,532.00
2023-05-11T04:53:44.708Z,476.00
2023-05-11T04:54:44.111Z,396.00
2023-05-11T04:55:44.328Z,404.00
2023-05-11T04:56:44.459Z,492.00
2023-05-11T04:57:44.171Z,560.00
2023-05-11T04:58:44.182Z,472.00
2023-05-11T04:59:45.186Z,380.00
2023-05-11T05:00:45.013Z,360.00
2023-05-11T05:01:44.071Z,320.00
2023-05-11T05:02:44.176Z,308.00
2023-05-11T05:03:45.016Z,328.00
2023-05-11T05:04:44.703Z,356.00
2023-05-11T05:05:43.961Z,376.00
2023-05-11T05:06:44.335Z,368.00
2023-05-11T05:07:43.952Z,404.00
2023-05-11T05:08:43.950Z,516.00
2023-05-11T05:09:45.507Z,472.00
2023-05-11T05:10:43.916Z,416.00
2023-05-11T05:11:43.914Z,400.00
2023-05-11T05:12:43.912Z,412.00
2023-05-11T05:13:43.879Z,412.00
2023-05-11T05:14:43.858Z,536.00
2023-05-11T05:15:43.888Z,580.00
2023-05-11T05:16:43.943Z,560.00
2023-05-11T05:17:45.316Z,512.00
2023-05-11T05:18:43.959Z,504.00
2023-05-11T05:19:43.829Z,536.00
2023-05-11T05:20:45.277Z,552.00
2023-05-11T05:21:45.375Z,564.00
2023-05-11T05:22:45.308Z,572.00
2023-05-11T05:23:45.234Z,588.00
2023-05-11T05:24:43.873Z,564.00
2023-05-11T05:25:43.741Z,540.00
2023-05-11T05:26:43.780Z,528.00
2023-05-11T05:27:43.701Z,484.00
2023-05-11T05:28:43.730Z,428.00
2023-05-11T05:29:44.674Z,400.00
2023-05-11T05:30:43.764Z,364.00
2023-05-11T05:31:43.690Z,368.00
2023-05-11T05:32:43.698Z,364.00
2023-05-11T05:33:43.784Z,352.00
2023-05-11T05:34:45.161Z,336.00
2023-05-11T05:35:45.162Z,356.00
2023-05-11T05:36:43.681Z,352.00
2023-05-11T05:37:44.608Z,380.00
2023-05-11T05:38:43.629Z,396.00
2023-05-11T05:39:44.336Z,400.00
2023-05-11T05:40:43.605Z,396.00
2023-05-11T05:41:43.590Z,352.00
2023-05-11T05:42:43.603Z,324.00
2023-05-11T05:43:44.405Z,348.00
2023-05-11T05:44:44.537Z,368.00
2023-05-11T05:45:45.040Z,372.00
2023-05-11T05:46:43.630Z,392.00
2023-05-11T05:47:43.590Z,488.00
2023-05-11T05:48:43.562Z,540.00
2023-05-11T05:49:44.502Z,580.00
2023-05-11T05:50:43.615Z,588.00
2023-05-11T05:51:44.477Z,568.00
2023-05-11T05:52:43.485Z,504.00
2023-05-11T05:53:45.422Z,412.00
2023-05-11T05:54:44.278Z,376.00
2023-05-11T05:55:43.431Z,376.00
2023-05-11T05:56:43.503Z,356.00
2023-05-11T05:57:43.436Z,320.00
2023-05-11T05:58:43.474Z,296.00
2023-05-11T05:59:43.376Z,296.00
2023-05-11T06:00:43.390Z,288.00
2023-05-11T06:01:44.812Z,284.00
2023-05-11T06:02:43.471Z,292.00
2023-05-11T06:03:43.441Z,292.00
2023-05-11T06:04:43.578Z,276.00
2023-05-11T06:05:43.310Z,268.00
2023-05-11T06:06:43.282Z,284.00
2023-05-11T06:07:46.647Z,312.00
2023-05-11T06:08:44.291Z,360.00
2023-05-11T06:09:43.268Z,504.00
2023-05-11T06:10:43.580Z,696.00
2023-05-11T06:11:43.240Z,872.00
2023-05-11T06:12:44.201Z,976.00
2023-05-11T06:13:43.229Z,996.00
2023-05-11T06:14:43.246Z,940.00
2023-05-11T06:15:43.938Z,960.00
2023-05-11T06:16:43.264Z,984.00
2023-05-11T06:17:43.209Z,1004.00
2023-05-11T06:18:43.217Z,1056.00
2023-05-11T06:19:43.173Z,1260.00
2023-05-11T06:20:43.253Z,1356.00
2023-05-11T06:21:44.679Z,1376.00
2023-05-11T06:22:44.099Z,1412.00
2023-05-11T06:23:44.103Z,1448.00
2023-05-11T06:24:43.116Z,1476.00
2023-05-11T06:25:43.117Z,1400.00
2023-05-11T06:26:44.047Z,1312.00
2023-05-11T06:27:44.580Z,1168.00
2023-05-11T06:28:43.200Z,1128.00
2023-05-11T06:29:43.066Z,1164.00
2023-05-11T06:30:44.488Z,1196.00
2023-05-11T06:31:43.448Z,1228.00
2023-05-11T06:32:45.084Z,1288.00
2023-05-11T06:33:43.002Z,1472.00
2023-05-11T06:34:43.008Z,1596.00
2023-05-11T06:35:43.020Z,1672.00
2023-05-11T06:36:44.426Z,1912.00
2023-05-11T06:37:43.951Z,2316.00
2023-05-11T06:38:43.059Z,2496.00
2023-05-11T06:39:44.412Z,2568.00
2023-05-11T06:40:42.958Z,2660.00
2023-05-11T06:41:42.921Z,2684.00
2023-05-11T06:42:42.926Z,2600.00
2023-05-11T06:43:42.886Z,2532.00
2023-05-11T06:44:42.929Z,2512.00
2023-05-11T06:45:42.868Z,2524.00
2023-05-11T06:46:42.852Z,2616.00
2023-05-11T06:47:44.355Z,2712.00
2023-05-11T06:48:42.839Z,2744.00
2023-05-11T06:49:43.688Z,2652.00
2023-05-11T06:50:42.848Z,2668.00
2023-05-11T06:51:42.786Z,2696.00
2023-05-11T06:52:42.800Z,2764.00
2023-05-11T06:53:42.783Z,2728.00
2023-05-11T06:54:42.767Z,2536.00
2023-05-11T06:55:43.709Z,2472.00
2023-05-11T06:56:42.756Z,2368.00
2023-05-11T06:57:43.720Z,2464.00
2023-05-11T06:58:43.519Z,2460.00
2023-05-11T06:59:42.700Z,2476.00
2023-05-11T07:00:42.809Z,2940.00
2023-05-11T07:01:42.813Z,3064.00
2023-05-11T07:02:42.715Z,2876.00
2023-05-11T07:03:42.649Z,2932.00
2023-05-11T07:04:42.706Z,3000.00
2023-05-11T07:05:42.639Z,3116.00
2023-05-11T07:06:42.631Z,3872.00
2023-05-11T07:07:42.618Z,4116.00
2023-05-11T07:08:42.624Z,3964.00
2023-05-11T07:09:42.776Z,3892.00
2023-05-11T07:10:42.813Z,3988.00
2023-05-11T07:11:42.564Z,4224.00
2023-05-11T07:12:42.571Z,3336.00
2023-05-11T07:13:42.553Z,3316.00
2023-05-11T07:14:42.534Z,3416.00
2023-05-11T07:15:42.549Z,3664.00
2023-05-11T07:16:42.601Z,3512.00
2023-05-11T07:17:42.547Z,3700.00
2023-05-11T07:18:42.591Z,3676.00
2023-05-11T07:19:42.488Z,3824.00
2023-05-11T07:20:43.268Z,3900.00
2023-05-11T07:21:42.461Z,4068.00
2023-05-11T07:22:42.477Z,4084.00
2023-05-11T07:23:42.534Z,4240.00
2023-05-11T07:24:42.487Z,4096.00
2023-05-11T07:25:42.494Z,4096.00
2023-05-11T07:26:42.487Z,4008.00
2023-05-11T07:27:42.433Z,4056.00
2023-05-11T07:28:42.379Z,4584.00
2023-05-11T07:29:42.416Z,5168.00
2023-05-11T07:30:42.393Z,5516.00
2023-05-11T07:31:43.334Z,5512.00
2023-05-11T07:32:42.391Z,5300.00
2023-05-11T07:33:42.411Z,5152.00
2023-05-11T07:34:43.329Z,4640.00
2023-05-11T07:35:42.325Z,3632.00
2023-05-11T07:36:42.309Z,3052.00
2023-05-11T07:37:42.287Z,2696.00
2023-05-11T07:38:42.269Z,2712.00
2023-05-11T07:39:42.262Z,2528.00
2023-05-11T07:40:42.280Z,2244.00
2023-05-11T07:41:42.246Z,2168.00
2023-05-11T07:42:44.249Z,2244.00
2023-05-11T07:43:42.224Z,2564.00
2023-05-11T07:44:43.198Z,2736.00
2023-05-11T07:45:42.200Z,2864.00
2023-05-11T07:46:42.359Z,2964.00
2023-05-11T07:47:42.241Z,3012.00
2023-05-11T07:48:42.180Z,3092.00
2023-05-11T07:49:44.013Z,3264.00
2023-05-11T07:50:42.138Z,3492.00
2023-05-11T07:51:42.951Z,3556.00
2023-05-11T07:52:42.213Z,3516.00
2023-05-11T07:53:42.100Z,3384.00
2023-05-11T07:54:43.579Z,3200.00
2023-05-11T07:55:42.877Z,3084.00
2023-05-11T07:56:43.541Z,2944.00
2023-05-11T07:57:43.532Z,2780.00
2023-05-11T07:58:42.126Z,2688.00
2023-05-11T07:59:42.095Z,3008.00
2023-05-11T08:00:42.168Z,3048.00
2023-05-11T08:01:43.558Z,2996.00
2023-05-11T08:02:42.221Z,2784.00
2023-05-11T08:03:41.987Z,2736.00
2023-05-11T08:04:42.026Z,2512.00
2023-05-11T08:05:42.130Z,2576.00
2023-05-11T08:06:41.964Z,2432.00
2023-05-11T08:07:42.020Z,2576.00
2023-05-11T08:08:41.933Z,2576.00
2023-05-11T08:09:41.933Z,2600.00
2023-05-11T08:10:43.415Z,2628.00
2023-05-11T08:11:41.943Z,2668.00
2023-05-11T08:12:41.911Z,2732.00
2023-05-11T08:13:41.980Z,2872.00
2023-05-11T08:14:41.892Z,2988.00
2023-05-11T08:15:41.865Z,3072.00
2023-05-11T08:16:41.975Z,3112.00
2023-05-11T08:17:41.892Z,3156.00
2023-05-11T08:18:41.901Z,3288.00
2023-05-11T08:19:41.852Z,3460.00
2023-05-11T08:20:41.822Z,3848.00
2023-05-11T08:21:41.805Z,4208.00
2023-05-11T08:22:42.057Z,4912.00
2023-05-11T08:23:42.927Z,5172.00
2023-05-11T08:24:41.771Z,5196.00
2023-05-11T08:25:43.313Z,5152.00
2023-05-11T08:26:42.563Z,5256.00
2023-05-11T08:27:42.564Z,5588.00
2023-05-11T08:28:41.762Z,5460.00
2023-05-11T08:29:41.722Z,4724.00
2023-05-11T08:30:42.088Z,3732.00
2023-05-11T08:31:42.840Z,3216.00
2023-05-11T08:33:43.303Z,4104.00
2023-05-11T08:34:43.316Z,4964.00
2023-05-11T08:35:41.831Z,5340.00
2023-05-11T08:36:41.908Z,5436.00
2023-05-11T08:37:41.673Z,5048.00
2023-05-11T08:38:42.613Z,4476.00
2023-05-11T08:39:47.242Z,3888.00
2023-05-11T08:40:42.771Z,3708.00
2023-05-11T08:41:41.589Z,3412.00
2023-05-11T08:42:41.578Z,2776.00
2023-05-11T08:43:41.562Z,2304.00
2023-05-11T08:44:41.549Z,2112.00
2023-05-11T08:45:42.541Z,1960.00
2023-05-11T08:46:41.526Z,1748.00
2023-05-11T08:47:41.570Z,1492.00
2023-05-11T08:48:42.965Z,1424.00
2023-05-11T08:49:41.686Z,1432.00
2023-05-11T08:50:41.553Z,1488.00
2023-05-11T08:51:42.985Z,1536.00
2023-05-11T08:52:41.456Z,1580.00
2023-05-11T08:53:49.524Z,1544.00
2023-05-11T08:54:41.500Z,1436.00
2023-05-11T08:55:42.013Z,1388.00
2023-05-11T08:56:42.889Z,1404.00
2023-05-11T08:57:42.989Z,1456.00
2023-05-11T08:58:41.382Z,1528.00
2023-05-11T08:59:41.463Z,1596.00
2023-05-11T09:00:42.829Z,1652.00
2023-05-11T09:01:42.881Z,1656.00
2023-05-11T09:02:41.360Z,1636.00
2023-05-11T09:03:42.812Z,1696.00
2023-05-11T09:04:42.789Z,1840.00
2023-05-11T09:05:41.471Z,1988.00
2023-05-11T09:06:41.333Z,2160.00
2023-05-11T09:07:42.756Z,2400.00
2023-05-11T09:08:41.288Z,2664.00
2023-05-11T09:09:42.054Z,2908.00
2023-05-11T09:10:41.404Z,3080.00
2023-05-11T09:11:41.681Z,3300.00
2023-05-11T09:12:41.235Z,3544.00
2023-05-11T09:13:41.246Z,3776.00
2023-05-11T09:14:41.277Z,3884.00
2023-05-11T09:15:41.241Z,3940.00
2023-05-11T09:16:42.017Z,3948.00
2023-05-11T09:17:41.227Z,3964.00
2023-05-11T09:18:41.229Z,3920.00
2023-05-11T09:19:41.193Z,3900.00
2023-05-11T09:20:41.149Z,3864.00
2023-05-11T09:21:41.138Z,3904.00
2023-05-11T09:22:41.115Z,3864.00
2023-05-11T09:23:42.582Z,3816.00
2023-05-11T09:24:41.090Z,3744.00
2023-05-11T09:25:41.137Z,3660.00
2023-05-11T09:26:41.537Z,3632.00
2023-05-11T09:27:41.693Z,3644.00
2023-05-11T09:29:41.039Z,3628.00
2023-05-11T09:30:41.081Z,3484.00
2023-05-11T09:31:41.079Z,3364.00
2023-05-11T09:32:41.065Z,3388.00
2023-05-11T09:33:41.005Z,3512.00
2023-05-11T09:34:43.127Z,3560.00
2023-05-11T09:35:40.976Z,3544.00
2023-05-11T09:36:42.440Z,3524.00
2023-05-11T09:37:41.763Z,3472.00
2023-05-11T09:38:40.937Z,3572.00
2023-05-11T09:39:53.417Z,3848.00
2023-05-11T09:40:43.167Z,3992.00
2023-05-11T09:41:40.950Z,4056.00
2023-05-11T09:42:41.869Z,3984.00
2023-05-11T09:43:40.905Z,3916.00
2023-05-11T09:44:40.868Z,3616.00
2023-05-11T09:45:40.886Z,3468.00
2023-05-11T09:46:40.899Z,3404.00
2023-05-11T09:47:41.192Z,3520.00
2023-05-11T09:48:42.285Z,3796.00
2023-05-11T09:49:42.830Z,4000.00
2023-05-11T09:50:40.865Z,4296.00
2023-05-11T09:51:40.998Z,4528.00
2023-05-11T09:52:42.273Z,4664.00
2023-05-11T09:53:42.234Z,4744.00
2023-05-11T09:54:42.252Z,4812.00
2023-05-11T09:55:42.252Z,4820.00
2023-05-11T09:56:40.744Z,4752.00
2023-05-11T09:57:41.713Z,4612.00
2023-05-11T09:58:40.874Z,4492.00
2023-05-11T09:59:40.757Z,4528.00
2023-05-11T10:00:40.712Z,4392.00
2023-05-11T10:01:40.741Z,4264.00
2023-05-11T10:02:41.801Z,4316.00
2023-05-11T10:03:40.825Z,4356.00
2023-05-11T10:04:41.472Z,4372.00
2023-05-11T10:05:41.700Z,4336.00
2023-05-11T10:06:40.945Z,4284.00
2023-05-11T10:07:40.872Z,4348.00
2023-05-11T10:08:41.692Z,4492.00
2023-05-11T10:09:40.616Z,4660.00
2023-05-11T10:10:40.587Z,4832.00
2023-05-11T10:11:41.175Z,5008.00
2023-05-11T10:12:40.661Z,5256.00
2023-05-11T10:13:40.799Z,5560.00
2023-05-11T10:14:41.361Z,5828.00
2023-05-11T10:15:40.883Z,6016.00
2023-05-11T10:16:41.978Z,6268.00
2023-05-11T10:17:40.525Z,6636.00
2023-05-11T10:18:41.472Z,6928.00
2023-05-11T10:19:40.999Z,6988.00
2023-05-11T10:20:40.629Z,7064.00
2023-05-11T10:21:40.640Z,7292.00
2023-05-11T10:22:41.929Z,7416.00
2023-05-11T10:23:40.493Z,7552.00
2023-05-11T10:24:40.454Z,7532.00
2023-05-11T10:25:41.897Z,7504.00
2023-05-11T10:26:41.283Z,7572.00
2023-05-11T10:27:42.872Z,7640.00
2023-05-11T10:28:41.855Z,7772.00
2023-05-11T10:29:41.417Z,7996.00
2023-05-11T10:30:40.354Z,8160.00
2023-05-11T10:31:40.363Z,8336.00
2023-05-11T10:32:41.364Z,8524.00
2023-05-11T10:33:42.308Z,8612.00
2023-05-11T10:34:40.511Z,8556.00
2023-05-11T10:35:41.007Z,8456.00
2023-05-11T10:36:41.784Z,8352.00
2023-05-11T10:37:40.333Z,8320.00
2023-05-11T10:38:40.295Z,8228.00
2023-05-11T10:39:41.111Z,8132.00
2023-05-11T10:40:40.332Z,8152.00
2023-05-11T10:41:41.230Z,7968.00
2023-05-11T10:42:40.234Z,8196.00
2023-05-11T10:43:40.254Z,8304.00
2023-05-11T10:44:40.208Z,8424.00
2023-05-11T10:45:40.221Z,8592.00
2023-05-11T10:46:40.944Z,8680.00
2023-05-11T10:47:40.200Z,8692.00
2023-05-11T10:48:41.628Z,8704.00
2023-05-11T10:49:40.178Z,8680.00
2023-05-11T10:50:43.387Z,8592.00
2023-05-11T10:51:40.144Z,8524.00
2023-05-11T10:52:40.955Z,8316.00
2023-05-11T10:53:40.113Z,8236.00
2023-05-11T10:54:40.144Z,8156.00
2023-05-11T10:55:40.357Z,8180.00
2023-05-11T10:56:40.076Z,8292.00
2023-05-11T10:57:40.058Z,8428.00
2023-05-11T10:58:41.061Z,8380.00
2023-05-11T10:59:40.092Z,8320.00
2023-05-11T11:00:40.193Z,8300.00
2023-05-11T11:01:40.284Z,8400.00
2023-05-11T11:02:40.301Z,8464.00
2023-05-11T11:03:40.023Z,8548.00
2023-05-11T11:04:40.362Z,8692.00
2023-05-11T11:05:41.027Z,8804.00
2023-05-11T11:06:39.996Z,8848.00
2023-05-11T11:07:39.974Z,8800.00
2023-05-11T11:08:40.165Z,8544.00
2023-05-11T11:09:39.927Z,8164.00
2023-05-11T11:10:39.958Z,7924.00
2023-05-11T11:11:39.947Z,8212.00
2023-05-11T11:12:39.894Z,8396.00
2023-05-11T11:13:39.885Z,8500.00
2023-05-11T11:14:40.130Z,8312.00
2023-05-11T11:15:39.906Z,7852.00
2023-05-11T11:16:40.114Z,7556.00
2023-05-11T11:17:39.882Z,7616.00
2023-05-11T11:18:39.891Z,7872.00
2023-05-11T11:19:39.850Z,7880.00
2023-05-11T11:20:39.798Z,7876.00
2023-05-11T11:21:39.804Z,8200.00
2023-05-11T11:22:39.786Z,8804.00
2023-05-11T11:23:39.804Z,9112.00
2023-05-11T11:24:39.772Z,9348.00
2023-05-11T11:25:39.760Z,9556.00
2023-05-11T11:26:39.757Z,9688.00
2023-05-11T11:27:40.141Z,9876.00
2023-05-11T11:28:40.715Z,10012.00
2023-05-11T11:29:39.704Z,10068.00
2023-05-11T11:30:39.704Z,9884.00
2023-05-11T11:31:39.727Z,9480.00
2023-05-11T11:32:39.690Z,9264.00
2023-05-11T11:33:39.675Z,9164.00
2023-05-11T11:34:39.681Z,9576.00
2023-05-11T11:35:39.706Z,9928.00
2023-05-11T11:36:40.652Z,9632.00
2023-05-11T11:37:39.604Z,9320.00
2023-05-11T11:38:39.616Z,8916.00
2023-05-11T11:39:39.641Z,8536.00
2023-05-11T11:40:50.759Z,8244.00
2023-05-11T11:41:42.054Z,8252.00
2023-05-11T11:42:39.553Z,7904.00
2023-05-11T11:43:39.556Z,8264.00
2023-05-11T11:44:39.580Z,8680.00
2023-05-11T11:45:39.554Z,9240.00
2023-05-11T11:46:39.557Z,8724.00
2023-05-11T11:47:39.559Z,9844.00
2023-05-11T11:48:39.498Z,10108.00
2023-05-11T11:49:39.607Z,10244.00
2023-05-11T11:50:39.500Z,10216.00
2023-05-11T11:51:39.467Z,10148.00
2023-05-11T11:52:39.475Z,10152.00
2023-05-11T11:53:41.010Z,9760.00
2023-05-11T11:54:39.452Z,9960.00
2023-05-11T11:55:39.419Z,10152.00
2023-05-11T11:56:39.592Z,10364.00
2023-05-11T11:57:39.405Z,10636.00
2023-05-11T11:58:39.405Z,10028.00
2023-05-11T11:59:39.408Z,9676.00
2023-05-11T12:00:39.363Z,9848.00
2023-05-11T12:01:40.336Z,10092.00
2023-05-11T12:02:40.412Z,9872.00
2023-05-11T12:03:39.470Z,9160.00
2023-05-11T12:04:40.197Z,8880.00
2023-05-11T12:05:39.355Z,9052.00
2023-05-11T12:06:40.290Z,9040.00
2023-05-11T12:07:39.283Z,8900.00
2023-05-11T12:08:40.277Z,9184.00
2023-05-11T12:09:40.733Z,9680.00
2023-05-11T12:10:39.248Z,10092.00
2023-05-11T12:11:39.257Z,10444.00
2023-05-11T12:12:40.156Z,10604.00
2023-05-11T12:13:39.242Z,10064.00
2023-05-11T12:14:40.740Z,9496.00
2023-05-11T12:15:40.193Z,9208.00
2023-05-11T12:16:40.194Z,9320.00
2023-05-11T12:17:40.047Z,9620.00
2023-05-11T12:18:40.195Z,10080.00
2023-05-11T12:19:40.144Z,10740.00
2023-05-11T12:20:39.193Z,10492.00
2023-05-11T12:21:39.179Z,10444.00
2023-05-11T12:22:39.140Z,10476.00
2023-05-11T12:23:39.102Z,11048.00
2023-05-11T12:24:39.110Z,11404.00
2023-05-11T12:25:39.371Z,11208.00
2023-05-11T12:26:39.071Z,11188.00
2023-05-11T12:27:39.078Z,10464.00
2023-05-11T12:28:39.294Z,8528.00
2023-05-11T12:29:40.152Z,7852.00
2023-05-11T12:30:39.055Z,9092.00
2023-05-11T12:31:39.227Z,9944.00
2023-05-11T12:32:39.842Z,10316.00